Astoria Regional Airport Astoria US
ICAO: KAST
IATA: AST
Category: Medium
Scheduled Services: No

Elevation: 15 ft
TransAlt. 18000 ft.

Airport Communications:
ASOS:135.375
SEATTLE CNTR:124.2
AIR CG:38.18
MC MINNVILLE RDO:122.3
CTAF/UNICOM:122.8

KAST Zoom In..

Runways:

(A) RW 08 length 5795 ft width 100 ft
---- / hdg 77

(B) RW 13 length 4996 ft width 100 ft
---- / hdg 135

(C) RW 26 length 5795 ft width 100 ft
ILS 109.50 / hdg 257

(D) RW 31 length 4996 ft width 100 ft
---- / hdg 315

Location; KAST
Day. 23 / Time. 02.55 Zulu
* Altimeter: 30.11
* Temperature: 16° c. 60.8°f.
* Wind from: 150° Speed 07 kn.
Dewpoint: 13° c.
Visibility: 10 Statute Miles.
Clouds: Clear (automated report).

KAST 230255Z AUTO 15007KT 10SM CLR 16/13 A3011 RMK AO2 SLP194 T01610128 55001


Wind From 150°
Speed 07 kn.

 
 
jpsmedia.com for Web Design worldairports.se 2018   terms of use